KMIW

Marshalltown Municipal Airport

Marshalltown, Iowa, USA
METAR KMIW 221753Z AUTO 31007KT 270V340 10SM CLR 16/02 A3012 RMK AO2 SLP201 T01610022 10161 21006 50002
Observed Flight Rules
Oct-22 @ 17:53 UTC (49 minutes ago) Visual Flight Rules
Wind Visibility Clouds
310° at 7 knots 10 miles
  • Clear skies
Temperatures Readings
Current 16°C / 61°F
Dewpoint 2°C / 36°F
Humidity 39%
Altimeter 30.12" Hg
Pressure 1020.1 hPa
Elevation 296
METAR KMIW 221753Z AUTO 31007KT 270V340 10SM CLR 16/02 A3012 RMK AO2 SLP201 T01610022 10161 21006 50002
Observed Flight Rules
Oct-22 @ 17:53 UTC
(49 minutes ago)
VFR
Wind Visibility
310° at 7 knots 10 miles
Clouds
  • Clear skies
Temperature Dewpoint
16°C / 61°F 2°C / 36°F
Humidity Altimeter Pressure
39% 30.12" Hg 1020.1 hPa